createdAt,value
2023-03-03T00:00:26.041Z,41.08
2023-03-03T00:02:32.247Z,44.60
2023-03-03T00:04:39.810Z,48.45
2023-03-03T00:06:45.302Z,43.10
2023-03-03T00:08:51.072Z,44.63
2023-03-03T00:10:56.788Z,39.28
2023-03-03T00:13:04.455Z,41.78
2023-03-03T00:17:26.884Z,45.95
2023-03-03T00:19:41.171Z,44.13
2023-03-03T00:21:52.800Z,42.60
2023-03-03T00:24:02.627Z,46.35
2023-03-03T00:26:23.661Z,46.05
2023-03-03T00:28:34.929Z,46.50
2023-03-03T00:30:40.179Z,44.22
2023-03-03T00:32:54.078Z,49.10
2023-03-03T00:35:25.927Z,44.88
2023-03-03T00:37:40.508Z,44.38
2023-03-03T00:39:45.653Z,48.50
2023-03-03T00:41:51.413Z,49.60
2023-03-03T00:44:01.548Z,47.95
2023-03-03T00:46:18.652Z,47.58
2023-03-03T00:48:29.920Z,43.28
2023-03-03T00:50:39.923Z,51.15
2023-03-03T00:52:54.975Z,46.05
2023-03-03T00:54:59.881Z,52.10
2023-03-03T00:57:04.846Z,55.47
2023-03-03T00:59:12.615Z,57.38
2023-03-03T01:01:18.577Z,52.28
2023-03-03T01:03:29.072Z,51.78
2023-03-03T01:05:34.482Z,51.47
2023-03-03T01:07:39.413Z,50.50
2023-03-03T01:09:44.312Z,49.55
2023-03-03T01:11:49.446Z,40.83
2023-03-03T01:13:56.038Z,29.90
2023-03-03T01:16:05.122Z,40.40
2023-03-03T01:18:12.134Z,42.30
2023-03-03T01:20:19.969Z,46.20
2023-03-03T01:22:28.546Z,50.22
2023-03-03T01:24:34.023Z,45.78
2023-03-03T01:26:41.340Z,51.90
2023-03-03T01:28:46.383Z,46.75
2023-03-03T01:30:51.294Z,50.97
2023-03-03T01:32:59.196Z,50.55
2023-03-03T01:35:05.468Z,52.25
2023-03-03T01:37:11.872Z,54.78
2023-03-03T01:39:16.910Z,47.40
2023-03-03T01:41:22.017Z,44.58
2023-03-03T01:43:31.096Z,46.47
2023-03-03T01:46:08.545Z,45.85
2023-03-03T01:48:26.902Z,46.13
2023-03-03T01:50:46.386Z,51.83
2023-03-03T01:52:52.350Z,35.80
2023-03-03T01:55:04.780Z,41.33
2023-03-03T01:57:19.008Z,39.58
2023-03-03T01:59:31.603Z,35.03
2023-03-03T02:01:39.618Z,26.83
2023-03-03T02:03:51.061Z,50.42
2023-03-03T02:06:03.470Z,45.47
2023-03-03T02:08:10.582Z,43.45
2023-03-03T02:10:18.572Z,43.17
2023-03-03T02:12:36.407Z,49.40
2023-03-03T02:16:49.882Z,53.38
2023-03-03T02:18:57.500Z,59.75
2023-03-03T02:23:21.449Z,62.00
2023-03-03T02:25:34.769Z,66.47
2023-03-03T02:27:42.459Z,71.72
2023-03-03T02:31:52.788Z,77.32
2023-03-03T02:34:01.006Z,79.03
2023-03-03T02:36:06.242Z,79.72
2023-03-03T02:38:22.109Z,74.85
2023-03-03T02:40:30.970Z,78.80
2023-03-03T02:42:39.647Z,72.97
2023-03-03T02:44:48.905Z,75.95
2023-03-03T02:46:56.229Z,72.90
2023-03-03T02:49:01.545Z,78.45
2023-03-03T02:51:08.834Z,72.65
2023-03-03T02:53:14.119Z,72.82
2023-03-03T02:55:19.879Z,73.60
2023-03-03T02:57:29.923Z,73.10
2023-03-03T02:59:36.277Z,81.40
2023-03-03T03:01:50.463Z,73.78
2023-03-03T03:03:57.575Z,72.65
2023-03-03T03:06:04.582Z,72.75
2023-03-03T03:08:09.854Z,73.73
2023-03-03T03:10:15.959Z,73.65
2023-03-03T03:12:22.482Z,75.97
2023-03-03T03:14:31.177Z,75.40
2023-03-03T03:16:38.023Z,79.68
2023-03-03T03:18:45.926Z,81.97
2023-03-03T03:20:53.209Z,76.05
2023-03-03T03:22:58.629Z,74.60
2023-03-03T03:25:04.905Z,76.60
2023-03-03T03:27:10.949Z,71.50
2023-03-03T03:29:18.836Z,79.25
2023-03-03T03:31:25.586Z,73.75
2023-03-03T03:33:30.833Z,80.93
2023-03-03T03:35:40.559Z,84.32
2023-03-03T03:37:46.171Z,77.95
2023-03-03T03:39:51.222Z,76.05
2023-03-03T03:41:58.824Z,76.55
2023-03-03T03:44:03.740Z,73.20
2023-03-03T03:46:09.463Z,68.78
2023-03-03T03:48:16.147Z,73.50
2023-03-03T03:50:22.845Z,74.28
2023-03-03T03:52:34.460Z,75.47
2023-03-03T03:54:41.131Z,72.97
2023-03-03T03:56:46.158Z,76.13
2023-03-03T03:58:51.715Z,77.18
2023-03-03T04:00:57.325Z,73.10
2023-03-03T04:03:03.479Z,75.18
2023-03-03T04:05:12.612Z,75.40
2023-03-03T04:07:19.015Z,72.80
2023-03-03T04:09:28.393Z,74.53
2023-03-03T04:11:36.113Z,68.75
2023-03-03T04:13:43.160Z,70.10
2023-03-03T04:15:49.967Z,73.47
2023-03-03T04:17:55.450Z,74.15
2023-03-03T04:20:02.855Z,70.30
2023-03-03T04:22:08.152Z,76.05
2023-03-03T04:24:15.185Z,68.03
2023-03-03T04:26:26.214Z,73.05
2023-03-03T04:28:32.243Z,65.65
2023-03-03T04:30:39.170Z,67.95
2023-03-03T04:32:47.599Z,68.85
2023-03-03T04:34:58.605Z,67.53
2023-03-03T04:37:13.113Z,69.22
2023-03-03T04:39:19.188Z,74.75
2023-03-03T04:41:26.928Z,71.78
2023-03-03T04:43:34.819Z,69.80
2023-03-03T04:45:41.702Z,71.13
2023-03-03T04:47:47.688Z,71.40
2023-03-03T04:49:53.205Z,65.20
2023-03-03T04:52:03.068Z,77.25
2023-03-03T04:54:09.179Z,69.72
2023-03-03T04:56:17.716Z,68.30
2023-03-03T04:58:26.271Z,72.70
2023-03-03T05:00:33.488Z,73.07
2023-03-03T05:02:39.701Z,72.80
2023-03-03T05:04:45.232Z,71.53
2023-03-03T05:08:59.332Z,69.20
2023-03-03T05:11:05.288Z,70.95
2023-03-03T05:13:10.630Z,68.57
2023-03-03T05:15:18.473Z,73.63
2023-03-03T05:17:23.882Z,77.10
2023-03-03T05:19:29.197Z,74.88
2023-03-03T05:21:36.918Z,73.70
2023-03-03T05:23:42.890Z,74.75
2023-03-03T05:25:51.642Z,74.47
2023-03-03T05:27:58.156Z,73.03
2023-03-03T05:30:03.952Z,70.55
2023-03-03T05:32:18.907Z,65.15
2023-03-03T05:34:23.817Z,69.05
2023-03-03T05:36:30.029Z,70.57
2023-03-03T05:38:36.269Z,71.57
2023-03-03T05:42:49.192Z,66.53
2023-03-03T05:44:56.350Z,65.97
2023-03-03T05:47:04.204Z,65.05
2023-03-03T05:49:11.971Z,71.82
2023-03-03T05:51:17.268Z,63.92
2023-03-03T05:53:22.980Z,58.03
2023-03-03T05:55:31.049Z,64.18
2023-03-03T05:57:38.529Z,65.18
2023-03-03T06:01:53.392Z,63.38
2023-03-03T06:03:59.192Z,63.58
2023-03-03T06:06:09.151Z,59.72
2023-03-03T06:08:15.486Z,63.95
2023-03-03T06:10:23.204Z,67.03
2023-03-03T06:12:31.931Z,64.18
2023-03-03T06:14:39.464Z,66.32
2023-03-03T06:16:44.441Z,65.63
2023-03-03T06:18:51.979Z,69.05
2023-03-03T06:20:57.687Z,64.95
2023-03-03T06:23:08.096Z,66.40
2023-03-03T06:25:13.467Z,67.60
2023-03-03T06:27:18.806Z,55.47
2023-03-03T06:29:24.296Z,50.08
2023-03-03T06:31:30.720Z,54.00
2023-03-03T06:33:39.034Z,57.63
2023-03-03T06:35:44.768Z,54.63
2023-03-03T06:37:50.841Z,50.40
2023-03-03T06:39:58.816Z,52.38
2023-03-03T06:44:08.617Z,48.35
2023-03-03T06:46:13.629Z,53.50
2023-03-03T06:48:20.447Z,51.67
2023-03-03T06:50:25.558Z,50.35
2023-03-03T06:52:32.368Z,50.85
2023-03-03T06:54:38.490Z,54.58
2023-03-03T06:56:47.684Z,50.13
2023-03-03T06:58:56.080Z,48.47
2023-03-03T07:01:06.598Z,52.17
2023-03-03T07:03:20.813Z,49.53
2023-03-03T07:05:28.935Z,48.95
2023-03-03T07:07:33.969Z,54.78
2023-03-03T07:09:39.347Z,46.60
2023-03-03T07:11:49.098Z,43.72
2023-03-03T07:13:57.349Z,51.00
2023-03-03T07:16:15.221Z,46.45
2023-03-03T07:18:38.353Z,42.08
2023-03-03T07:20:44.485Z,40.70
2023-03-03T07:22:51.488Z,43.83
2023-03-03T07:25:00.748Z,42.08
2023-03-03T07:27:20.281Z,43.10
2023-03-03T07:29:30.557Z,44.90
2023-03-03T07:31:40.942Z,43.28
2023-03-03T07:33:48.333Z,43.60
2023-03-03T07:35:59.435Z,45.17
2023-03-03T07:38:05.345Z,43.53
2023-03-03T07:40:33.967Z,47.70
2023-03-03T07:42:46.626Z,44.92
2023-03-03T07:45:30.430Z,46.70
2023-03-03T07:49:49.697Z,46.83
2023-03-03T07:52:03.238Z,42.80
2023-03-03T07:54:30.256Z,46.60
2023-03-03T07:56:41.170Z,45.00
2023-03-03T07:58:50.997Z,42.08
2023-03-03T08:01:39.826Z,38.33
2023-03-03T08:03:47.066Z,40.15
2023-03-03T08:05:54.034Z,39.70
2023-03-03T08:08:18.293Z,36.93
2023-03-03T08:10:44.061Z,37.13
2023-03-03T08:12:49.024Z,39.40
2023-03-03T08:14:58.369Z,37.25
2023-03-03T08:17:05.362Z,33.70
2023-03-03T08:19:10.473Z,37.50
2023-03-03T08:21:17.550Z,40.20
2023-03-03T08:23:23.693Z,32.70
2023-03-03T08:25:30.047Z,32.88
2023-03-03T08:27:34.962Z,37.58
2023-03-03T08:29:40.655Z,32.08
2023-03-03T08:31:48.549Z,31.10
2023-03-03T08:33:54.598Z,34.38
2023-03-03T08:36:01.165Z,32.08
2023-03-03T08:38:06.855Z,31.90
2023-03-03T08:40:18.918Z,29.52
2023-03-03T08:42:23.840Z,29.25
2023-03-03T08:44:29.268Z,30.30
2023-03-03T08:46:34.253Z,32.03
2023-03-03T08:48:42.462Z,33.38
2023-03-03T08:50:50.015Z,28.40
2023-03-03T08:52:55.281Z,29.85
2023-03-03T08:55:00.267Z,32.60
2023-03-03T08:57:05.174Z,38.60
2023-03-03T08:59:11.043Z,36.25
2023-03-03T09:01:16.566Z,32.83
2023-03-03T09:03:22.665Z,36.40
2023-03-03T09:05:32.861Z,35.08
2023-03-03T09:07:37.944Z,39.65
2023-03-03T09:09:43.200Z,38.72
2023-03-03T09:11:48.143Z,34.10
2023-03-03T09:13:53.941Z,35.35
2023-03-03T09:16:01.103Z,36.30
2023-03-03T09:18:19.272Z,34.05
2023-03-03T09:20:36.075Z,33.80
2023-03-03T09:22:42.747Z,34.40
2023-03-03T09:24:49.178Z,35.70
2023-03-03T09:26:55.037Z,36.22
2023-03-03T09:29:20.078Z,34.65
2023-03-03T09:31:34.190Z,34.65
2023-03-03T09:33:47.566Z,32.60
2023-03-03T09:36:02.562Z,35.25
2023-03-03T09:38:33.422Z,36.28
2023-03-03T09:40:58.657Z,35.22
2023-03-03T09:43:07.636Z,34.70
2023-03-03T09:45:32.010Z,33.30
2023-03-03T09:47:55.744Z,34.63
2023-03-03T09:50:16.056Z,31.33
2023-03-03T09:52:40.137Z,35.22
2023-03-03T09:54:59.812Z,35.05
2023-03-03T09:57:13.465Z,31.88
2023-03-03T09:59:49.168Z,34.88
2023-03-03T10:02:13.199Z,35.88
2023-03-03T10:04:58.996Z,32.45
2023-03-03T10:07:22.404Z,37.35
2023-03-03T10:10:02.777Z,30.88
2023-03-03T10:12:22.584Z,27.80
2023-03-03T10:14:48.472Z,28.05
2023-03-03T10:17:09.416Z,25.80
2023-03-03T10:19:34.439Z,29.60
2023-03-03T10:21:44.342Z,27.10
2023-03-03T10:23:59.288Z,31.42
2023-03-03T10:26:20.180Z,29.05
2023-03-03T10:29:08.638Z,32.00
2023-03-03T10:31:28.309Z,31.73
2023-03-03T10:33:51.865Z,27.83
2023-03-03T10:36:35.854Z,30.00
2023-03-03T10:39:05.859Z,26.60
2023-03-03T10:41:31.901Z,39.03
2023-03-03T10:44:04.140Z,34.55
2023-03-03T10:46:36.272Z,31.77
2023-03-03T10:49:00.016Z,39.85
2023-03-03T10:51:21.656Z,33.15
2023-03-03T10:53:34.589Z,29.15
2023-03-03T10:55:50.185Z,58.65
2023-03-03T10:58:20.606Z,31.98
2023-03-03T11:00:32.688Z,30.42
2023-03-03T11:02:50.257Z,26.20
2023-03-03T11:05:15.529Z,25.20
2023-03-03T11:07:31.481Z,28.42
2023-03-03T11:10:18.752Z,27.42
2023-03-03T11:12:37.874Z,27.33
2023-03-03T11:14:54.889Z,27.10
2023-03-03T11:17:12.884Z,28.55
2023-03-03T11:20:04.907Z,27.13
2023-03-03T11:22:26.087Z,26.25
2023-03-03T11:24:46.250Z,26.50
2023-03-03T11:27:29.101Z,27.05
2023-03-03T11:29:52.861Z,25.27
2023-03-03T11:32:19.111Z,31.73
2023-03-03T11:34:47.512Z,24.98
2023-03-03T11:36:59.645Z,23.92
2023-03-03T11:39:07.935Z,29.73
2023-03-03T11:41:29.086Z,25.45
2023-03-03T11:43:41.548Z,24.92
2023-03-03T11:45:54.289Z,27.90
2023-03-03T11:48:09.040Z,27.42
2023-03-03T11:50:23.487Z,22.85
2023-03-03T11:52:37.169Z,24.50
2023-03-03T11:54:52.881Z,26.42
2023-03-03T11:57:11.854Z,22.30
2023-03-03T11:59:44.151Z,23.38
2023-03-03T12:02:00.555Z,22.60
2023-03-03T12:04:07.683Z,20.55
2023-03-03T12:06:26.350Z,22.85
2023-03-03T12:09:12.337Z,22.95
2023-03-03T12:11:29.340Z,19.65
2023-03-03T12:13:49.351Z,20.63
2023-03-03T12:16:03.403Z,22.17
2023-03-03T12:19:02.482Z,21.27
2023-03-03T12:21:25.084Z,18.83
2023-03-03T12:23:53.511Z,19.40
2023-03-03T12:26:08.739Z,19.25
2023-03-03T12:28:20.570Z,20.70
2023-03-03T12:30:44.588Z,19.67
2023-03-03T12:33:17.193Z,21.38
2023-03-03T12:35:37.481Z,22.70
2023-03-03T12:37:56.594Z,16.77
2023-03-03T12:40:11.282Z,19.42
2023-03-03T12:42:28.074Z,20.15
2023-03-03T12:44:38.351Z,22.67
2023-03-03T12:47:02.251Z,18.30
2023-03-03T12:49:08.255Z,16.35
2023-03-03T12:51:28.003Z,19.92
2023-03-03T12:53:48.888Z,16.20
2023-03-03T12:55:59.957Z,15.95
2023-03-03T12:58:16.787Z,16.33
2023-03-03T13:00:40.991Z,17.45
2023-03-03T13:02:59.173Z,16.88
2023-03-03T13:05:20.518Z,14.68
2023-03-03T13:07:34.549Z,16.48
2023-03-03T13:10:02.838Z,16.38
2023-03-03T13:12:30.488Z,14.35
2023-03-03T13:14:45.099Z,15.32
2023-03-03T13:17:01.540Z,17.13
2023-03-03T13:19:13.837Z,15.88
2023-03-03T13:21:29.185Z,17.25
2023-03-03T13:23:52.253Z,14.65
2023-03-03T13:26:03.535Z,14.60
2023-03-03T13:28:17.253Z,16.63
2023-03-03T13:30:26.621Z,15.10
2023-03-03T13:32:43.009Z,14.77
2023-03-03T13:34:58.612Z,13.87
2023-03-03T13:37:14.975Z,13.02
2023-03-03T13:39:30.041Z,14.15
2023-03-03T13:41:46.942Z,15.02
2023-03-03T13:44:00.154Z,14.13
2023-03-03T13:46:16.523Z,14.88
2023-03-03T13:48:43.234Z,14.15
2023-03-03T13:50:53.768Z,14.40
2023-03-03T13:53:21.110Z,14.95
2023-03-03T13:55:34.033Z,13.02
2023-03-03T13:57:59.889Z,14.30
2023-03-03T14:00:18.942Z,14.20
2023-03-03T14:02:53.859Z,13.32
2023-03-03T14:05:04.698Z,12.95
2023-03-03T14:07:18.268Z,12.10
2023-03-03T14:09:48.081Z,13.98
2023-03-03T14:12:06.473Z,14.00
2023-03-03T14:14:25.287Z,15.18
2023-03-03T14:16:52.205Z,14.02
2023-03-03T14:19:00.930Z,12.88
2023-03-03T14:21:15.181Z,12.57
2023-03-03T14:23:32.078Z,12.07
2023-03-03T14:26:01.735Z,11.77
2023-03-03T14:28:15.339Z,11.63
2023-03-03T14:30:35.158Z,12.82
2023-03-03T14:32:45.774Z,12.52
2023-03-03T14:35:02.638Z,14.95
2023-03-03T14:37:28.016Z,13.03
2023-03-03T14:39:39.502Z,15.32
2023-03-03T14:41:45.446Z,14.68
2023-03-03T14:44:04.055Z,14.60
2023-03-03T14:46:42.938Z,13.27
2023-03-03T14:48:55.039Z,11.40
2023-03-03T14:51:04.777Z,16.13
2023-03-03T14:53:18.950Z,14.30
2023-03-03T14:55:40.136Z,14.18
2023-03-03T14:57:48.961Z,14.05
2023-03-03T15:00:31.207Z,12.82
2023-03-03T15:02:40.649Z,13.02
2023-03-03T15:04:46.430Z,11.00
2023-03-03T15:06:53.326Z,13.63
2023-03-03T15:09:00.297Z,11.82
2023-03-03T15:11:28.915Z,15.43
2023-03-03T15:13:39.003Z,13.20
2023-03-03T15:15:55.668Z,16.45
2023-03-03T15:18:04.341Z,14.00
2023-03-03T15:20:40.381Z,14.52
2023-03-03T15:22:54.533Z,12.70
2023-03-03T15:25:06.525Z,12.43
2023-03-03T15:27:22.005Z,12.80
2023-03-03T15:29:35.610Z,12.93
2023-03-03T15:31:55.124Z,13.60
2023-03-03T15:36:29.390Z,15.07
2023-03-03T15:38:48.597Z,15.55
2023-03-03T15:41:03.382Z,20.33
2023-03-03T15:43:17.250Z,13.88
2023-03-03T15:45:31.586Z,15.57
2023-03-03T15:48:04.414Z,14.43
2023-03-03T15:50:37.866Z,12.43
2023-03-03T15:52:59.548Z,15.98
2023-03-03T15:55:27.468Z,16.02
2023-03-03T15:57:47.995Z,15.52
2023-03-03T16:00:22.680Z,15.55
2023-03-03T16:02:44.609Z,12.82
2023-03-03T16:05:04.045Z,14.13
2023-03-03T16:07:18.649Z,17.92
2023-03-03T16:09:43.593Z,15.57
2023-03-03T16:11:56.235Z,15.02
2023-03-03T16:14:40.579Z,13.55
2023-03-03T16:16:54.526Z,21.00
2023-03-03T16:19:16.678Z,16.00
2023-03-03T16:21:42.443Z,16.60
2023-03-03T16:23:52.876Z,13.52
2023-03-03T16:28:31.943Z,14.32
2023-03-03T16:30:49.580Z,14.98
2023-03-03T16:33:03.191Z,13.25
2023-03-03T16:35:25.804Z,14.13
2023-03-03T16:37:35.358Z,10.13
2023-03-03T16:39:57.502Z,12.98
2023-03-03T16:42:13.907Z,11.68
2023-03-03T16:44:38.293Z,14.02
2023-03-03T16:46:47.559Z,13.80
2023-03-03T16:49:01.499Z,11.75
2023-03-03T16:51:28.226Z,13.68
2023-03-03T16:53:54.491Z,13.30
2023-03-03T16:56:11.194Z,12.43
2023-03-03T16:58:44.427Z,12.55
2023-03-03T17:00:58.844Z,14.40
2023-03-03T17:03:50.347Z,21.25
2023-03-03T17:05:59.582Z,18.05
2023-03-03T17:08:26.284Z,16.83
2023-03-03T17:10:35.442Z,16.95
2023-03-03T17:13:09.493Z,16.73
2023-03-03T17:15:36.052Z,16.42
2023-03-03T17:17:49.022Z,16.02
2023-03-03T17:20:11.835Z,18.30
2023-03-03T17:22:31.109Z,15.88
2023-03-03T17:24:52.315Z,19.85
2023-03-03T17:27:13.834Z,17.55
2023-03-03T17:29:55.946Z,19.17
2023-03-03T17:32:16.673Z,20.13
2023-03-03T17:34:41.648Z,17.88
2023-03-03T17:37:08.828Z,17.88
2023-03-03T17:39:34.278Z,21.33
2023-03-03T17:41:50.530Z,18.05
2023-03-03T17:44:03.833Z,18.15
2023-03-03T17:46:20.162Z,21.95
2023-03-03T17:49:14.612Z,20.85
2023-03-03T17:51:50.205Z,21.88
2023-03-03T17:54:32.378Z,27.98
2023-03-03T17:56:51.617Z,19.73
2023-03-03T17:59:30.094Z,21.65
2023-03-03T18:01:56.730Z,19.65
2023-03-03T18:04:33.194Z,18.98
2023-03-03T18:07:03.304Z,29.48
2023-03-03T18:09:30.656Z,22.63
2023-03-03T18:14:29.831Z,22.73
2023-03-03T18:16:59.027Z,19.27
2023-03-03T18:19:32.271Z,20.85
2023-03-03T18:21:47.373Z,21.17
2023-03-03T18:23:56.750Z,19.92
2023-03-03T18:26:03.848Z,21.05
2023-03-03T18:28:38.890Z,23.45
2023-03-03T18:31:02.955Z,21.90
2023-03-03T18:33:14.007Z,19.80
2023-03-03T18:35:26.705Z,23.90
2023-03-03T18:37:45.166Z,21.42
2023-03-03T18:39:52.436Z,18.57
2023-03-03T18:42:37.660Z,20.73
2023-03-03T18:44:49.966Z,20.55
2023-03-03T18:47:01.493Z,20.85
2023-03-03T18:49:10.257Z,24.65
2023-03-03T18:51:35.542Z,28.63
2023-03-03T18:53:48.033Z,20.52
2023-03-03T18:55:55.182Z,21.95
2023-03-03T18:58:40.236Z,23.00
2023-03-03T19:00:52.693Z,23.63
2023-03-03T19:02:59.453Z,27.38
2023-03-03T19:05:26.059Z,25.35
2023-03-03T19:07:48.601Z,23.00
2023-03-03T19:10:01.907Z,22.88
2023-03-03T19:12:13.680Z,26.90
2023-03-03T19:14:39.098Z,30.55
2023-03-03T19:16:46.984Z,23.88
2023-03-03T19:21:26.623Z,20.05
2023-03-03T19:23:54.657Z,28.95
2023-03-03T19:27:01.069Z,24.35
2023-03-03T19:29:27.534Z,26.80
2023-03-03T19:31:46.625Z,22.20
2023-03-03T19:33:59.709Z,24.58
2023-03-03T19:36:58.474Z,25.05
2023-03-03T19:39:26.592Z,25.98
2023-03-03T19:41:57.461Z,25.45
2023-03-03T19:44:16.699Z,27.50
2023-03-03T19:46:41.855Z,25.73
2023-03-03T19:49:04.471Z,30.52
2023-03-03T19:51:18.688Z,25.02
2023-03-03T19:53:40.706Z,25.27
2023-03-03T19:56:09.331Z,25.85
2023-03-03T19:58:32.228Z,24.90
2023-03-03T20:00:44.953Z,26.33
2023-03-03T20:03:06.738Z,25.75
2023-03-03T20:05:24.447Z,28.27
2023-03-03T20:07:41.570Z,33.60
2023-03-03T20:09:57.616Z,31.88
2023-03-03T20:12:40.840Z,31.52
2023-03-03T20:14:52.026Z,28.35
2023-03-03T20:17:05.376Z,36.42
2023-03-03T20:19:33.471Z,36.67
2023-03-03T20:21:52.680Z,41.35
2023-03-03T20:24:19.205Z,37.92
2023-03-03T20:26:34.122Z,31.50
2023-03-03T20:29:09.162Z,35.00
2023-03-03T20:31:26.188Z,28.40
2023-03-03T20:33:55.019Z,30.95
2023-03-03T20:36:12.394Z,30.40
2023-03-03T20:38:30.940Z,28.10
2023-03-03T20:40:45.477Z,31.95
2023-03-03T20:43:00.471Z,33.13
2023-03-03T20:45:40.834Z,36.53
2023-03-03T20:48:05.524Z,32.90
2023-03-03T20:50:30.884Z,34.95
2023-03-03T20:52:47.334Z,30.05
2023-03-03T20:55:10.186Z,32.17
2023-03-03T20:57:22.516Z,30.20
2023-03-03T20:59:36.403Z,30.42
2023-03-03T21:01:54.777Z,27.63
2023-03-03T21:04:21.094Z,29.70
2023-03-03T21:06:44.640Z,29.85
2023-03-03T21:08:56.317Z,36.75
2023-03-03T21:11:07.994Z,29.00
2023-03-03T21:13:37.216Z,34.05
2023-03-03T21:15:42.244Z,25.42
2023-03-03T21:19:54.068Z,52.92
2023-03-03T21:22:02.392Z,36.22
2023-03-03T21:24:12.638Z,33.28
2023-03-03T21:26:55.721Z,34.53
2023-03-03T21:29:04.723Z,29.60
2023-03-03T21:31:16.852Z,32.80
2023-03-03T21:33:51.931Z,33.28
2023-03-03T21:36:03.120Z,42.30
2023-03-03T21:38:10.308Z,29.30
2023-03-03T21:40:21.044Z,32.65
2023-03-03T21:42:46.717Z,33.90
2023-03-03T21:44:54.233Z,31.60
2023-03-03T21:47:02.011Z,25.45
2023-03-03T21:49:08.278Z,28.77
2023-03-03T21:51:16.709Z,30.15
2023-03-03T21:53:23.635Z,27.63
2023-03-03T21:55:31.616Z,32.83
2023-03-03T21:57:40.188Z,29.42
2023-03-03T21:59:48.726Z,26.83
2023-03-03T22:01:54.200Z,24.98
2023-03-03T22:03:59.152Z,26.80
2023-03-03T22:06:06.731Z,27.27
2023-03-03T22:08:14.152Z,31.55
2023-03-03T22:10:19.816Z,29.73
2023-03-03T22:12:24.808Z,28.65
2023-03-03T22:14:33.257Z,26.25
2023-03-03T22:16:39.538Z,27.88
2023-03-03T22:18:47.024Z,25.80
2023-03-03T22:20:54.194Z,27.08
2023-03-03T22:23:03.885Z,25.95
2023-03-03T22:25:12.754Z,26.40
2023-03-03T22:27:17.758Z,26.35
2023-03-03T22:29:23.963Z,25.50
2023-03-03T22:31:32.335Z,27.63
2023-03-03T22:33:43.911Z,24.42
2023-03-03T22:35:49.388Z,26.27
2023-03-03T22:37:56.480Z,30.42
2023-03-03T22:40:01.680Z,28.33
2023-03-03T22:42:11.145Z,27.00
2023-03-03T22:44:16.084Z,29.80
2023-03-03T22:46:24.778Z,26.15
2023-03-03T22:48:33.360Z,31.98
2023-03-03T22:50:40.665Z,30.13
2023-03-03T22:52:46.084Z,32.08
2023-03-03T22:54:53.962Z,28.38
2023-03-03T22:57:00.835Z,26.27
2023-03-03T22:59:07.489Z,29.10
2023-03-03T23:01:13.220Z,27.60
2023-03-03T23:03:21.138Z,26.98
2023-03-03T23:05:29.926Z,27.38
2023-03-03T23:07:35.753Z,29.27
2023-03-03T23:09:40.730Z,28.20
2023-03-03T23:11:46.292Z,29.00
2023-03-03T23:13:53.417Z,26.85
2023-03-03T23:16:02.937Z,31.25
2023-03-03T23:18:08.181Z,30.88
2023-03-03T23:20:17.000Z,28.65
2023-03-03T23:22:24.532Z,28.33
2023-03-03T23:26:35.130Z,27.30
2023-03-03T23:28:40.104Z,31.17
2023-03-03T23:30:45.330Z,28.52
2023-03-03T23:32:55.733Z,26.48
2023-03-03T23:35:00.688Z,24.50
2023-03-03T23:37:06.576Z,23.58
2023-03-03T23:39:15.298Z,28.23
2023-03-03T23:41:23.508Z,24.38
2023-03-03T23:43:28.959Z,28.33
2023-03-03T23:45:36.530Z,28.85
2023-03-03T23:47:43.246Z,28.33
2023-03-03T23:49:48.559Z,30.48
2023-03-03T23:51:53.594Z,31.88
2023-03-03T23:53:59.412Z,29.88
2023-03-03T23:56:08.012Z,27.42
2023-03-03T23:58:15.241Z,27.80
